Time;durP1;ratioP1;P1;durP2;ratioP2;P2;SDS_P1;SDS_P2;PMS_P1;PMS_P2;Temp;Humidity;BMP_temperature;BMP_pressure;BME280_temperature;BME280_humidity;BME280_pressure;Samples;Min_cycle;Max_cycle;Signal;HPM_P1;HPM_P2
2023/06/04 00:00:52;;;;;;;;;6.75;6.75;;;;;22.94;36.42;101118.59;2079634;28;46583;-61
2023/06/04 00:01:52;;;;;;;;;6.75;6.75;;;;;22.93;36.70;101119.59;2082488;28;45740;-63
2023/06/04 00:02:53;;;;;;;;;7.50;6.50;;;;;22.94;36.68;101123.16;2082384;28;45711;-63
2023/06/04 00:03:53;;;;;;;;;4.50;4.00;;;;;22.92;36.40;101114.28;2088437;28;45731;-62
2023/06/04 00:04:53;;;;;;;;;8.50;8.50;;;;;22.93;36.38;101119.59;2084416;28;45138;-67
2023/06/04 00:05:54;;;;;;;;;4.00;4.00;;;;;22.90;36.36;101120.66;2087862;28;46869;-62
2023/06/04 00:06:54;;;;;;;;;8.00;7.00;;;;;22.93;36.76;101118.72;2081797;28;45502;-65
2023/06/04 00:07:54;;;;;;;;;9.25;7.75;;;;;22.92;36.40;101114.28;2086557;28;45408;-61
2023/06/04 00:08:55;;;;;;;;;5.00;4.00;;;;;22.92;36.26;101117.84;2082207;28;47214;-62
2023/06/04 00:09:55;;;;;;;;;6.25;6.25;;;;;22.89;36.86;101116.22;2081620;28;46849;-63
2023/06/04 00:10:55;;;;;;;;;5.50;5.50;;;;;22.89;36.50;101115.34;2088196;28;46973;-61
2023/06/04 00:11:56;;;;;;;;;8.00;8.00;;;;;22.86;36.46;101115.53;2085515;28;44982;-59
2023/06/04 00:12:56;;;;;;;;;8.75;8.00;;;;;22.84;36.31;101110.22;2084580;28;46013;-62
2023/06/04 00:13:57;;;;;;;;;5.25;5.25;;;;;22.83;36.52;101110.34;2088563;28;44973;-64
2023/06/04 00:14:57;;;;;;;;;10.00;7.00;;;;;22.82;36.24;101111.28;2084978;28;46346;-61
2023/06/04 00:15:57;;;;;;;;;7.25;6.75;;;;;22.81;36.42;101110.41;2082200;28;46351;-62
2023/06/04 00:16:58;;;;;;;;;5.50;5.50;;;;;22.81;36.58;101114.94;2085193;28;45965;-60
2023/06/04 00:17:58;;;;;;;;;5.75;5.75;;;;;22.80;36.70;101114.09;2082700;28;47189;-62
2023/06/04 00:18:58;;;;;;;;;7.00;7.00;;;;;22.79;36.54;101108.78;2080308;28;46272;-62
2023/06/04 00:19:58;;;;;;;;;7.00;7.00;;;;;22.78;36.41;101107.91;2088584;28;44983;-62
2023/06/04 00:20:59;;;;;;;;;5.00;5.00;;;;;22.77;36.58;101106.19;2088528;28;45102;-61
2023/06/04 00:21:59;;;;;;;;;6.75;6.00;;;;;22.75;36.47;101107.25;2105062;28;45929;-59
2023/06/04 00:23:00;;;;;;;;;5.25;4.75;;;;;22.74;36.59;101109.09;2104976;28;45680;-64
2023/06/04 00:24:01;;;;;;;;;5.50;5.00;;;;;22.74;36.64;101106.38;2088903;28;46303;-62
2023/06/04 00:25:01;;;;;;;;;6.00;6.00;;;;;22.73;36.87;101110.03;2088633;28;46170;-63
2023/06/04 00:26:02;;;;;;;;;8.25;6.75;;;;;22.72;36.67;101115.56;2088622;28;46249;-62
2023/06/04 00:27:02;;;;;;;;;5.75;5.75;;;;;22.69;36.61;101110.34;2088323;28;45906;-64
2023/06/04 00:28:03;;;;;;;;;5.25;5.25;;;;;22.67;36.63;101115.88;2088322;28;46022;-64
2023/06/04 00:29:03;;;;;;;;;4.75;4.25;;;;;22.66;36.58;101107.84;2088484;28;45757;-62
2023/06/04 00:30:04;;;;;;;;;5.75;4.25;;;;;22.64;36.42;101109.78;2088100;28;46178;-62
2023/06/04 00:31:08;;;;;;;;;7.80;6.60;;;;;22.64;36.84;101104.38;2088342;28;45855;-63
2023/06/04 00:32:09;;;;;;;;;5.60;5.40;;;;;22.63;36.55;101113.47;2087872;28;46165;-62
2023/06/04 00:33:09;;;;;;;;;5.00;5.00;;;;;22.61;36.99;101122.56;2087913;28;46479;-63
2023/06/04 00:34:10;;;;;;;;;7.00;7.00;;;;;22.61;36.72;101117.16;2095188;28;46621;-62
2023/06/04 00:35:11;;;;;;;;;4.40;4.40;;;;;22.60;36.90;101111.81;2087263;28;45730;-64
2023/06/04 00:36:12;;;;;;;;;5.80;5.20;;;;;22.59;36.87;101115.50;2085601;28;45627;-61
2023/06/04 00:37:12;;;;;;;;;5.75;5.00;;;;;22.56;36.56;101113.84;2088670;28;45225;-63
2023/06/04 00:38:12;;;;;;;;;7.50;5.25;;;;;22.54;36.59;101113.09;2089337;28;46331;-63
2023/06/04 00:39:13;;;;;;;;;6.00;6.00;;;;;22.53;36.57;101116.78;2088046;28;45999;-63
2023/06/04 00:40:13;;;;;;;;;7.00;7.00;;;;;22.53;36.69;101108.66;2085991;28;46280;-62
2023/06/04 00:41:13;;;;;;;;;6.50;4.75;;;;;22.51;36.50;101112.44;2083931;28;45111;-62
2023/06/04 00:42:14;;;;;;;;;6.00;6.00;;;;;22.51;36.84;101115.13;2086580;28;46029;-64
2023/06/04 00:43:14;;;;;;;;;5.25;5.25;;;;;22.51;36.68;101110.59;2087963;28;45796;-61
2023/06/04 00:44:15;;;;;;;;;4.75;4.00;;;;;22.51;36.98;101113.31;2088534;28;45789;-62
2023/06/04 00:45:18;;;;;;;;;7.50;6.00;;;;;22.51;36.56;101109.72;2088159;28;46399;-62
2023/06/04 00:46:21;;;;;;;;;7.20;6.00;;;;;22.49;36.42;101109.84;2088383;28;46694;-61
2023/06/04 00:47:21;;;;;;;;;6.00;6.00;;;;;22.48;36.70;101116.19;2088208;28;46146;-64
2023/06/04 00:48:23;;;;;;;;;5.00;5.00;;;;;22.47;36.45;101110.88;2089048;28;45055;-62
2023/06/04 00:49:23;;;;;;;;;3.60;3.60;;;;;22.46;36.80;101110.00;2088783;28;47027;-63
2023/06/04 00:50:24;;;;;;;;;5.75;5.75;;;;;22.44;36.44;101109.25;2082146;28;45725;-65
2023/06/04 00:51:25;;;;;;;;;5.75;5.75;;;;;22.43;37.03;101109.34;2084565;28;46237;-60
2023/06/04 00:52:25;;;;;;;;;5.75;5.75;;;;;22.42;36.90;101108.47;2088478;28;46913;-62
2023/06/04 00:53:26;;;;;;;;;7.25;6.25;;;;;22.42;36.73;101113.88;2087977;28;45874;-63
2023/06/04 00:54:26;;;;;;;;;6.50;5.50;;;;;22.41;36.68;101103.19;2088195;28;47993;-64
2023/06/04 00:55:27;;;;;;;;;4.75;4.75;;;;;22.41;36.64;101109.44;2088100;28;45698;-64
2023/06/04 00:56:28;;;;;;;;;5.25;5.25;;;;;22.41;36.98;101104.03;2087806;28;46195;-61
2023/06/04 00:57:28;;;;;;;;;4.25;4.25;;;;;22.40;36.82;101107.72;2088104;28;46752;-63
2023/06/04 00:58:28;;;;;;;;;4.75;4.25;;;;;22.38;36.44;101104.25;2087764;28;46322;-63
2023/06/04 00:59:34;;;;;;;;;6.00;6.00;;;;;22.40;36.68;101109.56;2090550;28;46073;-62
2023/06/04 01:00:36;;;;;;;;;5.20;5.20;;;;;22.39;36.68;101105.13;2088116;28;46170;-61
2023/06/04 01:02:01;;;;;;;;;5.60;5.40;;;;;22.37;36.73;101105.22;2088580;28;46087;-63
2023/06/04 01:03:11;;;;;;;;;10.20;7.60;;;;;22.36;36.90;101108.00;2088252;28;45789;-61
2023/06/04 01:04:20;;;;;;;;;6.00;6.00;;;;;22.34;36.74;101113.50;2087830;28;46400;-63
2023/06/04 01:05:39;;;;;;;;;5.60;5.60;;;;;22.33;36.49;101107.22;2087452;28;47082;-61
2023/06/04 01:06:44;;;;;;;;;7.40;7.00;;;;;22.31;36.80;101111.88;2094529;28;46127;-63
2023/06/04 01:07:48;;;;;;;;;7.00;7.00;;;;;22.31;36.97;101114.59;2092161;28;45363;-61
2023/06/04 01:08:54;;;;;;;;;8.00;7.20;;;;;22.32;37.01;101113.59;2096068;28;45637;-63
2023/06/04 01:09:55;;;;;;;;;8.60;8.40;;;;;22.31;37.09;101111.88;2095347;28;46242;-62
2023/06/04 01:10:56;;;;;;;;;7.20;7.20;;;;;22.30;36.33;101111.97;2092086;28;45905;-61
2023/06/04 01:12:01;;;;;;;;;10.20;9.00;;;;;22.29;36.60;101112.94;2096427;28;45212;-61
2023/06/04 01:13:02;;;;;;;;;13.60;9.80;;;;;22.28;36.68;101109.38;2094445;28;46029;-62
2023/06/04 01:14:04;;;;;;;;;9.00;9.00;;;;;22.28;36.98;101113.91;2091446;28;46663;-63
2023/06/04 01:15:06;;;;;;;;;13.60;12.80;;;;;22.28;36.70;101108.50;2086237;28;46797;-63
2023/06/04 01:16:08;;;;;;;;;9.00;9.00;;;;;22.27;37.02;101114.88;2092335;28;46109;-62
2023/06/04 01:17:20;;;;;;;;;11.40;11.40;;;;;22.25;36.83;101111.41;2093466;28;45915;-63
2023/06/04 01:18:27;;;;;;;;;12.60;10.80;;;;;22.23;36.80;101111.53;2096756;28;46582;-64
2023/06/04 01:19:47;;;;;;;;;14.40;11.80;;;;;22.22;36.63;101106.19;2087023;28;46230;-62
2023/06/04 01:20:48;;;;;;;;;10.00;10.00;;;;;22.20;37.15;101106.28;2091146;28;45636;-60
2023/06/04 01:21:51;;;;;;;;;12.00;12.00;;;;;22.19;37.00;101103.69;2095081;28;46329;-60
2023/06/04 01:22:51;;;;;;;;;14.00;12.80;;;;;22.18;36.97;101107.34;2095849;28;46266;-63
2023/06/04 01:23:58;;;;;;;;;14.00;14.00;;;;;22.17;37.15;101101.09;2093414;28;46653;-62
2023/06/04 01:25:03;;;;;;;;;14.60;12.80;;;;;22.16;37.09;101104.75;2095908;28;45540;-62
2023/06/04 01:26:05;;;;;;;;;17.00;16.20;;;;;22.16;36.85;101104.75;2086447;28;45118;-63
2023/06/04 01:27:06;;;;;;;;;12.80;12.20;;;;;22.15;37.18;101111.13;2087755;28;46476;-63
2023/06/04 01:28:10;;;;;;;;;14.40;14.40;;;;;22.14;36.96;101105.81;2085859;28;45574;-63
2023/06/04 01:29:10;;;;;;;;;12.00;12.00;;;;;22.14;37.04;101111.22;2084994;28;46757;-62
2023/06/04 01:30:12;;;;;;;;;9.50;9.50;;;;;22.14;36.84;101108.53;2082425;28;45843;-63
2023/06/04 01:31:13;;;;;;;;;16.00;12.00;;;;;22.13;36.80;101109.50;2089052;28;47240;-64
2023/06/04 01:32:16;;;;;;;;;12.80;12.80;;;;;22.13;36.99;101107.66;2089233;28;45132;-61
2023/06/04 01:33:19;;;;;;;;;15.20;13.20;;;;;22.13;36.73;101098.69;2091872;28;45705;-61
2023/06/04 01:34:19;;;;;;;;;13.80;13.40;;;;;22.13;36.77;101109.50;2086324;28;46133;-62
2023/06/04 01:35:20;;;;;;;;;14.00;11.50;;;;;22.11;37.17;101096.09;2088094;28;45576;-63
2023/06/04 01:36:21;;;;;;;;;13.80;12.80;;;;;22.11;36.97;101106.91;2089577;28;45758;-63
2023/06/04 01:37:22;;;;;;;;;10.00;10.00;;;;;22.11;36.92;101106.91;2088392;28;47976;-64
2023/06/04 01:38:22;;;;;;;;;12.00;9.50;;;;;22.10;37.06;101109.66;2088992;28;45580;-63
2023/06/04 01:39:22;;;;;;;;;9.50;9.25;;;;;22.07;37.30;101102.63;2089741;28;46358;-63
2023/06/04 01:40:24;;;;;;;;;9.00;7.75;;;;;22.06;37.16;101105.44;2088504;28;45275;-61
2023/06/04 01:41:25;;;;;;;;;9.40;9.40;;;;;22.05;36.71;101104.53;2086401;28;45702;-62
2023/06/04 01:42:25;;;;;;;;;9.75;9.75;;;;;22.03;36.83;101106.47;2087123;28;46217;-63
2023/06/04 01:43:25;;;;;;;;;11.75;10.00;;;;;22.03;36.89;101110.03;2085632;28;46835;-60
2023/06/04 01:44:26;;;;;;;;;8.00;8.00;;;;;22.01;36.80;101098.47;2089226;28;46585;-63
2023/06/04 01:45:27;;;;;;;;;7.00;7.00;;;;;22.02;36.68;101110.13;2086620;28;46450;-63
2023/06/04 01:46:28;;;;;;;;;7.80;7.20;;;;;22.01;36.85;101106.56;2081178;28;45480;-65
2023/06/04 01:47:28;;;;;;;;;6.75;6.75;;;;;21.99;37.13;101116.63;2100159;28;47363;-64
2023/06/04 01:48:28;;;;;;;;;9.75;9.00;;;;;21.99;36.88;101110.34;2105950;28;45719;-61
2023/06/04 01:49:29;;;;;;;;;8.25;8.25;;;;;21.98;36.70;101111.31;2088802;28;46040;-60
2023/06/04 01:50:30;;;;;;;;;6.25;5.50;;;;;21.97;37.06;101107.69;2096972;28;45514;-64
2023/06/04 01:51:30;;;;;;;;;6.00;6.00;;;;;21.97;36.78;101106.84;2100281;28;45056;-62
2023/06/04 01:52:31;;;;;;;;;8.00;8.00;;;;;21.97;36.71;101112.25;2090655;28;45027;-62
2023/06/04 01:53:31;;;;;;;;;7.25;7.25;;;;;21.95;36.94;101108.78;2089628;28;45602;-62
2023/06/04 01:54:32;;;;;;;;;5.50;5.50;;;;;21.96;36.80;101107.81;2089213;28;45767;-62
2023/06/04 01:55:33;;;;;;;;;6.60;5.80;;;;;21.93;36.69;101113.41;2088236;28;46936;-61
2023/06/04 01:56:33;;;;;;;;;6.00;5.00;;;;;21.90;37.23;101106.38;2090034;28;46148;-62
2023/06/04 01:57:35;;;;;;;;;5.75;5.75;;;;;21.91;37.00;101112.66;2089171;28;45953;-61
2023/06/04 01:58:36;;;;;;;;;7.80;5.40;;;;;21.89;36.71;101115.44;2088768;28;46242;-63
2023/06/04 01:59:36;;;;;;;;;6.25;6.25;;;;;21.87;36.81;101117.38;2086561;28;45779;-63
2023/06/04 02:00:36;;;;;;;;;7.50;5.75;;;;;21.87;37.07;101116.50;2087120;28;45508;-62
2023/06/04 02:01:37;;;;;;;;;5.00;5.00;;;;;21.85;37.05;101110.31;2089674;28;46154;-63
2023/06/04 02:02:38;;;;;;;;;5.50;5.50;;;;;21.84;36.85;101112.16;2089263;28;45553;-61
2023/06/04 02:03:40;;;;;;;;;5.60;5.60;;;;;21.83;37.49;101115.81;2089614;28;46227;-62
2023/06/04 02:04:44;;;;;;;;;4.20;4.20;;;;;21.82;37.00;101115.91;2087122;28;47572;-62
2023/06/04 02:05:46;;;;;;;;;5.00;5.00;;;;;21.82;37.24;101113.22;2085851;28;45838;-62
2023/06/04 02:06:48;;;;;;;;;3.80;3.80;;;;;21.80;36.84;101109.75;2091420;28;46064;-62
2023/06/04 02:07:48;;;;;;;;;4.40;4.00;;;;;21.77;37.21;101108.09;2090164;28;45657;-64
2023/06/04 02:08:49;;;;;;;;;5.25;4.25;;;;;21.77;37.01;101116.22;2089213;28;45321;-62
2023/06/04 02:09:49;;;;;;;;;3.50;3.50;;;;;21.77;37.25;101121.59;2089553;28;45688;-59
2023/06/04 02:10:50;;;;;;;;;5.00;4.00;;;;;21.77;37.13;101123.44;2089107;28;46270;-60
2023/06/04 02:11:50;;;;;;;;;3.25;3.25;;;;;21.75;37.35;101115.44;2089081;28;47439;-61
2023/06/04 02:12:59;;;;;;;;;4.75;4.00;;;;;21.75;36.95;101128.94;2089603;28;45944;-60
2023/06/04 02:13:59;;;;;;;;;5.60;5.60;;;;;21.74;37.33;101124.50;2089607;28;46442;-62
2023/06/04 02:15:00;;;;;;;;;4.75;4.75;;;;;21.72;37.41;101123.72;2089449;28;45706;-65
2023/06/04 02:16:00;;;;;;;;;4.33;4.33;;;;;21.72;37.63;101126.41;2080672;28;46592;-62
2023/06/04 02:17:00;;;;;;;;;4.00;4.00;;;;;21.70;37.52;101121.09;2080773;28;45813;-62
2023/06/04 02:18:15;;;;;;;;;3.00;3.00;;;;;21.70;37.39;101126.50;2089638;28;46031;-63
2023/06/04 02:19:18;;;;;;;;;3.80;3.80;;;;;21.70;37.54;101128.34;2089264;28;45696;-60
2023/06/04 02:20:18;;;;;;;;;5.60;4.00;;;;;21.69;37.41;101127.47;2089153;28;47717;-61
2023/06/04 02:21:19;;;;;;;;;5.25;4.50;;;;;21.68;37.53;101131.13;2090475;28;46209;-63
2023/06/04 02:22:20;;;;;;;;;3.75;3.25;;;;;21.68;37.18;101124.88;2090378;28;45710;-62
2023/06/04 02:23:20;;;;;;;;;4.20;3.80;;;;;21.67;37.11;101126.69;2091428;28;46231;-61
2023/06/04 02:24:21;;;;;;;;;5.00;3.50;;;;;21.66;37.42;101127.66;2089840;28;46566;-63
2023/06/04 02:25:23;;;;;;;;;5.60;5.60;;;;;21.66;37.26;101134.91;2088745;28;46073;-62
2023/06/04 02:26:24;;;;;;;;;4.20;4.20;;;;;21.63;37.31;101122.47;2091057;28;46146;-62
2023/06/04 02:27:25;;;;;;;;;5.00;4.80;;;;;21.61;37.69;101123.53;2089769;28;45626;-62
2023/06/04 02:28:26;;;;;;;;;5.25;3.50;;;;;21.61;37.60;101127.09;2089191;28;46315;-64
2023/06/04 02:29:26;;;;;;;;;5.50;4.00;;;;;21.59;37.42;101131.69;2090074;28;45830;-62
2023/06/04 02:30:26;;;;;;;;;3.25;3.25;;;;;21.58;37.65;101129.09;2089515;28;45925;-64
2023/06/04 02:31:27;;;;;;;;;4.00;4.00;;;;;21.57;37.68;101133.63;2089922;28;45232;-62
2023/06/04 02:32:28;;;;;;;;;4.75;4.75;;;;;21.57;37.18;101130.06;2089416;28;45636;-64
2023/06/04 02:33:29;;;;;;;;;6.00;6.00;;;;;21.55;37.54;101130.16;2087830;28;45781;-65
2023/06/04 02:34:29;;;;;;;;;6.50;3.75;;;;;21.53;37.36;101123.97;2088519;28;46626;-61
2023/06/04 02:35:31;;;;;;;;;4.50;4.00;;;;;21.52;37.33;101127.66;2089768;28;46851;-63
2023/06/04 02:36:31;;;;;;;;;5.00;4.40;;;;;21.51;37.57;101128.63;2088466;28;46631;-63
2023/06/04 02:37:31;;;;;;;;;4.50;3.50;;;;;21.51;37.65;101131.31;2090091;28;46698;-63
2023/06/04 02:38:32;;;;;;;;;11.00;8.75;;;;;21.52;37.72;101132.19;2089718;28;46266;-62
2023/06/04 02:39:32;;;;;;;;;6.50;6.50;;;;;21.50;37.17;101132.28;2089880;28;46307;-63
2023/06/04 02:40:32;;;;;;;;;12.50;11.25;;;;;21.50;37.95;101129.56;2090331;28;45056;-61
2023/06/04 02:41:33;;;;;;;;;8.50;7.25;;;;;21.49;37.83;101130.53;2089796;28;46154;-64
2023/06/04 02:42:33;;;;;;;;;6.00;5.00;;;;;21.49;37.23;101126.97;2093335;28;46642;-61
2023/06/04 02:43:33;;;;;;;;;8.75;7.75;;;;;21.48;37.86;101128.81;2090954;28;46054;-62
2023/06/04 02:44:33;;;;;;;;;5.50;5.50;;;;;21.49;37.25;101130.53;2090530;28;45552;-62
2023/06/04 02:45:34;;;;;;;;;4.00;4.00;;;;;21.47;37.23;101127.06;2093724;28;46106;-63
2023/06/04 02:46:34;;;;;;;;;4.75;4.75;;;;;21.47;37.39;101126.16;2089559;28;45948;-63
2023/06/04 02:47:35;;;;;;;;;6.00;5.00;;;;;21.46;37.57;101130.69;2089677;28;45643;-61
2023/06/04 02:48:35;;;;;;;;;6.25;6.25;;;;;21.44;37.31;101133.50;2091712;28;46301;-60
2023/06/04 02:49:35;;;;;;;;;6.75;6.75;;;;;21.44;37.71;101129.94;2090260;28;46017;-61
2023/06/04 02:50:35;;;;;;;;;5.50;4.00;;;;;21.43;37.85;101130.91;2094067;28;46183;-62
2023/06/04 02:51:36;;;;;;;;;6.00;6.00;;;;;21.42;37.30;101130.03;2093299;28;46321;-63
2023/06/04 02:52:39;;;;;;;;;4.25;4.25;;;;;21.43;37.39;101129.06;2091977;28;45430;-63
2023/06/04 02:53:40;;;;;;;;;5.60;4.80;;;;;21.42;37.70;101131.84;2093289;28;45609;-61
2023/06/04 02:54:41;;;;;;;;;3.20;3.20;;;;;21.40;37.73;101125.69;2089775;28;46196;-62
2023/06/04 02:55:41;;;;;;;;;4.50;4.50;;;;;21.38;37.79;101128.47;2094065;28;45914;-62
2023/06/04 02:56:43;;;;;;;;;4.50;4.00;;;;;21.38;37.27;101124.91;2090706;28;45810;-61
2023/06/04 02:57:43;;;;;;;;;3.40;3.40;;;;;21.38;37.77;101122.22;2089451;28;46164;-60
2023/06/04 02:58:51;;;;;;;;;5.00;5.00;;;;;21.38;37.50;101124.91;2089218;28;46396;-63
2023/06/04 02:59:51;;;;;;;;;3.80;3.80;;;;;21.36;37.81;101124.16;2091720;28;45983;-61
2023/06/04 03:00:52;;;;;;;;;5.50;4.25;;;;;21.33;37.40;101127.88;2090573;28;45476;-62
2023/06/04 03:01:53;;;;;;;;;4.60;3.40;;;;;21.32;37.42;101131.53;2093067;28;46733;-59
2023/06/04 03:03:01;;;;;;;;;4.80;3.80;;;;;21.32;37.92;101130.66;2089705;28;45495;-64
2023/06/04 03:04:04;;;;;;;;;6.40;5.20;;;;;21.30;37.59;101129.91;2090895;28;46105;-63
2023/06/04 03:05:05;;;;;;;;;7.20;5.20;;;;;21.29;37.42;101129.03;2090865;28;45957;-64
2023/06/04 03:06:05;;;;;;;;;2.00;2.00;;;;;21.28;37.46;101130.00;2094941;28;46564;-63
2023/06/04 03:07:07;;;;;;;;;3.75;3.75;;;;;21.28;37.71;101132.69;2092063;28;46037;-61
2023/06/04 03:08:08;;;;;;;;;6.00;4.60;;;;;21.28;37.48;101129.13;2092523;28;46050;-62
2023/06/04 03:09:08;;;;;;;;;4.00;3.50;;;;;21.26;37.83;101120.25;2088793;28;45960;-62
2023/06/04 03:10:10;;;;;;;;;5.00;5.00;;;;;21.25;37.59;101127.47;2093193;28;46184;-63
2023/06/04 03:11:11;;;;;;;;;5.60;5.00;;;;;21.25;37.47;101121.19;2082388;28;45992;-64
2023/06/04 03:12:11;;;;;;;;;4.50;4.25;;;;;21.24;37.56;101120.31;2085119;28;45875;-64
2023/06/04 03:13:12;;;;;;;;;4.75;4.75;;;;;21.21;37.33;101123.16;2091635;28;46584;-63
2023/06/04 03:14:12;;;;;;;;;6.00;4.50;;;;;21.20;37.52;101125.97;2089213;28;46449;-60
2023/06/04 03:15:12;;;;;;;;;3.00;3.00;;;;;21.19;37.69;101122.41;2091062;28;46202;-60
2023/06/04 03:16:13;;;;;;;;;4.75;3.75;;;;;21.17;37.96;101119.78;2091995;28;45878;-63
2023/06/04 03:17:14;;;;;;;;;6.00;6.00;;;;;21.16;37.96;101119.88;2088855;28;45985;-62
2023/06/04 03:18:14;;;;;;;;;3.25;3.25;;;;;21.15;37.50;101119.03;2092011;28;45496;-62
2023/06/04 03:19:14;;;;;;;;;2.00;2.00;;;;;21.13;37.85;101122.78;2084722;28;45394;-63
2023/06/04 03:20:14;;;;;;;;;3.25;3.25;;;;;21.12;38.09;101123.75;2081067;28;45498;-61
2023/06/04 03:21:15;;;;;;;;;5.25;4.00;;;;;21.11;37.71;101125.56;2094334;28;46371;-61
2023/06/04 03:22:15;;;;;;;;;3.75;3.00;;;;;21.10;37.31;101120.25;2094530;28;45105;-63
2023/06/04 03:23:16;;;;;;;;;8.00;5.50;;;;;21.07;37.81;101129.38;2096809;28;45421;-61
2023/06/04 03:24:16;;;;;;;;;5.25;5.25;;;;;21.03;37.96;101130.53;2093795;28;46359;-63
2023/06/04 03:25:17;;;;;;;;;5.33;4.00;;;;;21.00;37.97;101124.47;2089478;28;45586;-64
2023/06/04 03:26:17;;;;;;;;;6.00;4.75;;;;;20.97;38.32;101127.34;2095678;28;46209;-61
2023/06/04 03:27:17;;;;;;;;;3.00;2.00;;;;;20.96;38.03;101126.47;2085215;28;46419;-62
2023/06/04 03:28:18;;;;;;;;;4.67;3.33;;;;;20.96;37.72;101122.88;2088451;28;45962;-63
2023/06/04 03:29:18;;;;;;;;;3.67;3.00;;;;;20.94;37.83;101122.97;2087685;28;45190;-64
2023/06/04 03:30:18;;;;;;;;;5.00;5.00;;;;;20.93;38.08;101123.06;2092301;28;45225;-62
2023/06/04 03:31:19;;;;;;;;;4.00;4.00;;;;;20.92;37.81;101121.31;2090104;28;45969;-62
2023/06/04 03:32:19;;;;;;;;;4.00;4.00;;;;;20.92;38.26;101124.03;2092166;28;46155;-63
2023/06/04 03:33:19;;;;;;;;;4.33;4.00;;;;;20.92;37.93;101118.63;2093460;28;45654;-63
2023/06/04 03:34:20;;;;;;;;;5.00;5.00;;;;;20.91;37.88;101125.84;2088417;28;45905;-62
2023/06/04 03:35:20;;;;;;;;;3.00;2.50;;;;;20.89;37.94;101122.38;2091953;28;45339;-62
2023/06/04 03:36:26;;;;;;;;;2.00;1.67;;;;;20.89;38.18;101125.06;2090474;28;46656;-63
2023/06/04 03:37:26;;;;;;;;;2.25;2.25;;;;;20.89;38.42;101121.50;2088863;28;46060;-61
2023/06/04 03:38:27;;;;;;;;;4.00;4.00;;;;;20.88;38.20;101123.34;2090552;28;46520;-61
2023/06/04 03:39:27;;;;;;;;;4.00;4.00;;;;;20.86;37.76;101120.75;2089442;28;45662;-61
2023/06/04 03:40:27;;;;;;;;;3.67;3.00;;;;;20.85;38.01;101120.84;2090504;28;46961;-63
2023/06/04 03:41:28;;;;;;;;;4.00;4.00;;;;;20.83;38.17;101120.03;2094442;28;45615;-62
2023/06/04 03:42:28;;;;;;;;;1.00;1.00;;;;;20.82;38.51;101123.69;2089266;28;45317;-62
2023/06/04 03:43:28;;;;;;;;;2.75;2.75;;;;;20.81;38.10;101125.50;2088995;28;45797;-62
2023/06/04 03:44:29;;;;;;;;;4.50;3.00;;;;;20.81;38.03;101122.81;2090764;28;45632;-65
2023/06/04 03:45:29;;;;;;;;;4.00;4.00;;;;;20.80;38.36;101122.91;2089422;28;45445;-62
2023/06/04 03:46:33;;;;;;;;;5.67;4.00;;;;;20.80;37.93;101120.22;2091142;28;46281;-61
2023/06/04 03:47:33;;;;;;;;;5.00;4.50;;;;;20.78;38.16;101123.00;2088160;28;46557;-62
2023/06/04 03:48:34;;;;;;;;;3.00;3.00;;;;;20.76;37.92;101122.22;2088159;28;45444;-62
2023/06/04 03:49:34;;;;;;;;;5.25;3.75;;;;;20.75;37.93;101120.50;2091027;28;45727;-63
2023/06/04 03:50:35;;;;;;;;;4.67;3.00;;;;;20.75;38.32;101122.31;2087782;28;46306;-64
2023/06/04 03:51:36;;;;;;;;;3.25;3.25;;;;;20.74;38.22;101126.84;2091863;28;45987;-60
2023/06/04 03:52:36;;;;;;;;;4.50;3.00;;;;;20.74;38.28;101124.16;2091599;28;46883;-61
2023/06/04 03:53:37;;;;;;;;;5.00;4.00;;;;;20.73;38.14;101121.53;2088930;28;46802;-63
2023/06/04 03:54:37;;;;;;;;;4.67;4.67;;;;;20.71;38.48;101124.31;2090631;28;46020;-65
2023/06/04 03:55:37;;;;;;;;;4.67;4.67;;;;;20.72;37.94;101130.59;2089810;28;45536;-62
2023/06/04 03:56:38;;;;;;;;;3.00;3.00;;;;;20.71;37.83;101127.03;2091740;28;46154;-62
2023/06/04 03:57:38;;;;;;;;;2.00;2.00;;;;;20.71;38.13;101129.72;2092381;28;45808;-62
2023/06/04 03:58:39;;;;;;;;;5.25;5.00;;;;;20.71;38.14;101127.03;2089199;28;45803;-61
2023/06/04 03:59:39;;;;;;;;;4.75;4.00;;;;;20.72;38.30;101122.50;2091495;28;46595;-63
2023/06/04 04:00:39;;;;;;;;;3.00;3.00;;;;;20.71;38.39;101131.53;2099761;28;45585;-59
2023/06/04 04:01:40;;;;;;;;;4.00;4.00;;;;;20.72;38.08;101135.97;2097139;28;45529;-62
2023/06/04 04:02:40;;;;;;;;;3.00;3.00;;;;;20.72;37.90;101135.97;2098220;28;46329;-61
2023/06/04 04:03:42;;;;;;;;;2.33;2.33;;;;;20.71;38.42;101131.53;2096986;28;45933;-62
2023/06/04 04:04:43;;;;;;;;;4.50;4.50;;;;;20.71;38.26;101137.81;2088771;28;46319;-62
2023/06/04 04:05:43;;;;;;;;;5.00;4.75;;;;;20.72;37.84;101131.47;2083992;28;45908;-61
2023/06/04 04:06:43;;;;;;;;;4.50;4.50;;;;;20.71;38.04;101137.81;2102070;28;46510;-63
2023/06/04 04:07:44;;;;;;;;;5.00;5.00;;;;;20.70;37.81;101144.13;2099687;28;46811;-62
2023/06/04 04:08:44;;;;;;;;;5.00;3.25;;;;;20.69;37.82;101134.31;2104384;28;46195;-63
2023/06/04 04:09:44;;;;;;;;;4.25;3.25;;;;;20.69;38.35;101139.69;2099949;28;46258;-61
2023/06/04 04:10:45;;;;;;;;;3.75;3.00;;;;;20.69;38.31;101136.13;2101674;28;45583;-62
2023/06/04 04:11:45;;;;;;;;;3.25;3.25;;;;;20.68;37.78;101137.97;2096866;28;45981;-60
2023/06/04 04:12:45;;;;;;;;;4.00;4.00;;;;;20.68;38.31;101137.09;2094775;28;46217;-62
2023/06/04 04:13:46;;;;;;;;;4.25;4.25;;;;;20.69;38.36;101142.41;2094231;28;46640;-62
2023/06/04 04:14:47;;;;;;;;;4.50;4.50;;;;;20.68;38.28;101134.41;2098179;28;46653;-61
2023/06/04 04:15:47;;;;;;;;;4.00;2.75;;;;;20.67;38.31;101141.63;2095676;28;46253;-65
2023/06/04 04:16:47;;;;;;;;;4.00;4.00;;;;;20.67;38.10;101146.16;2098193;28;45526;-63
2023/06/04 04:17:48;;;;;;;;;2.75;2.75;;;;;20.66;38.29;101141.72;2097650;28;45621;-62
2023/06/04 04:18:48;;;;;;;;;3.50;3.50;;;;;20.66;38.16;101144.41;2095644;28;46451;-62
2023/06/04 04:19:48;;;;;;;;;4.25;4.00;;;;;20.63;38.06;101142.75;2095550;28;45739;-63
2023/06/04 04:20:49;;;;;;;;;3.25;3.25;;;;;20.63;38.31;101145.47;2096428;28;47948;-60
2023/06/04 04:21:49;;;;;;;;;4.00;3.00;;;;;20.64;37.77;101147.19;2101936;28;45856;-62
2023/06/04 04:22:50;;;;;;;;;3.50;3.50;;;;;20.64;37.87;101144.50;2103964;28;46307;-61
2023/06/04 04:23:51;;;;;;;;;4.00;4.00;;;;;20.63;38.26;101145.47;2098211;28;46508;-62
2023/06/04 04:24:51;;;;;;;;;5.60;4.60;;;;;20.62;38.03;101143.72;2104079;28;45395;-62
2023/06/04 04:25:53;;;;;;;;;3.33;3.33;;;;;20.59;37.96;101141.22;2083629;28;45347;-61
2023/06/04 04:26:54;;;;;;;;;4.00;3.20;;;;;20.57;37.86;101135.88;2081460;28;46222;-62
2023/06/04 04:27:56;;;;;;;;;1.20;1.20;;;;;20.57;38.42;101140.41;2094407;28;46452;-62
2023/06/04 04:28:57;;;;;;;;;3.40;3.40;;;;;20.54;38.03;101141.44;2099839;28;46383;-62
2023/06/04 04:30:00;;;;;;;;;4.20;4.20;;;;;20.55;37.98;101139.63;2096312;28;45858;-62
2023/06/04 04:31:02;;;;;;;;;3.40;3.40;;;;;20.56;38.24;101133.25;2099242;28;46672;-62
2023/06/04 04:32:10;;;;;;;;;5.20;3.60;;;;;20.56;37.74;101141.34;2100093;28;46932;-62
2023/06/04 04:33:10;;;;;;;;;2.00;2.00;;;;;20.55;38.07;101143.19;2096877;28;45717;-60
2023/06/04 04:34:11;;;;;;;;;3.00;3.00;;;;;20.56;37.73;101141.34;2090233;28;46542;-61
2023/06/04 04:35:11;;;;;;;;;3.00;3.00;;;;;20.55;38.29;101142.31;2088067;28;45891;-62
2023/06/04 04:36:14;;;;;;;;;3.33;3.33;;;;;20.55;37.67;101143.19;2088614;28;45545;-63
2023/06/04 04:37:14;;;;;;;;;3.00;3.00;;;;;20.52;38.34;101143.38;2094261;28;46385;-63
2023/06/04 04:38:17;;;;;;;;;3.75;3.75;;;;;20.51;38.09;101140.75;2095109;28;46621;-62
2023/06/04 04:39:23;;;;;;;;;5.00;3.40;;;;;20.49;37.87;101142.66;2090707;28;46034;-64
2023/06/04 04:40:23;;;;;;;;;2.80;2.80;;;;;20.48;38.17;101144.50;2091822;28;46624;-62
2023/06/04 04:41:23;;;;;;;;;1.67;1.00;;;;;20.44;37.75;101142.03;2092626;28;46368;-63
2023/06/04 04:42:24;;;;;;;;;4.00;4.00;;;;;20.43;38.04;101151.09;2097279;28;46146;-63
2023/06/04 04:43:32;;;;;;;;;4.00;4.00;;;;;20.42;38.13;101149.34;2094998;28;45506;-63
2023/06/04 04:44:33;;;;;;;;;2.00;2.00;;;;;20.42;37.83;101150.22;2094851;28;46329;-62
2023/06/04 04:45:33;;;;;;;;;4.25;3.25;;;;;20.41;38.36;101144.88;2089744;28;46144;-63